Glenville, New York
Current Conditions -  °F | °C
As of 3:55 PM on Thursday 20 Nov 2014 (Local Time) from KNY0 Reporting Station
Overcast Overcast  
Wind Chill: -10°   Ceiling: 1900
Heat Index: -4°   Visibility: 3mi
Dew Point: -7°   Wind: 12mph
Humidity: 78%   Direction: 300°WNW
Pressure: 29.83"   Gusts: 16mph
Location:  42.9294°N, 74.0527°W
Report Text: KNY0 202055Z AUTO 30010G14KT 270V340 3SM SCT013 BKN019 OVC041 M04/M07 A2983 RMK AO2 T10401073
Loading
Personal Weather Stations






























Interactive Weather Map New forecast layout! Learn more

10-Day Weather Forecast

Advertisements
Track Severe Weather on mobile